createdAt,value
2019-06-25T00:00:33.895Z,24.80
2019-06-25T00:03:01.851Z,24.70
2019-06-25T00:05:29.823Z,24.70
2019-06-25T00:07:58.051Z,24.70
2019-06-25T00:10:25.930Z,24.70
2019-06-25T00:12:53.908Z,24.60
2019-06-25T00:15:21.895Z,24.50
2019-06-25T00:17:49.938Z,24.50
2019-06-25T00:20:17.909Z,24.50
2019-06-25T00:22:45.948Z,24.50
2019-06-25T00:25:14.177Z,24.50
2019-06-25T00:27:42.053Z,24.50
2019-06-25T00:30:10.117Z,24.40
2019-06-25T00:32:38.012Z,24.40
2019-06-25T00:35:06.026Z,24.40
2019-06-25T00:37:33.990Z,24.40
2019-06-25T00:40:01.965Z,24.30
2019-06-25T00:42:30.047Z,24.30
2019-06-25T00:44:58.041Z,24.30
2019-06-25T00:47:26.027Z,24.30
2019-06-25T00:49:53.976Z,24.20
2019-06-25T00:52:21.901Z,24.30
2019-06-25T00:54:49.893Z,24.20
2019-06-25T00:57:17.847Z,24.20
2019-06-25T00:59:45.789Z,24.10
2019-06-25T01:02:24.061Z,24.10
2019-06-25T01:04:52.049Z,24.20
2019-06-25T01:07:19.996Z,24.20
2019-06-25T01:09:47.962Z,24.10
2019-06-25T01:12:15.851Z,24.10
2019-06-25T01:14:43.788Z,24.00
2019-06-25T01:17:11.735Z,24.00
2019-06-25T01:19:39.746Z,24.00
2019-06-25T01:22:07.757Z,24.00
2019-06-25T01:24:35.623Z,24.00
2019-06-25T01:27:03.623Z,24.00
2019-06-25T01:29:31.566Z,24.00
2019-06-25T01:31:59.448Z,24.00
2019-06-25T01:34:27.378Z,24.00
2019-06-25T01:36:55.302Z,24.00
2019-06-25T01:39:23.211Z,23.90
2019-06-25T01:41:51.215Z,23.90
2019-06-25T01:44:19.089Z,23.90
2019-06-25T01:46:47.107Z,23.80
2019-06-25T01:49:15.105Z,23.80
2019-06-25T01:51:43.104Z,23.60
2019-06-25T01:54:11.063Z,23.70
2019-06-25T01:56:38.967Z,23.70
2019-06-25T01:59:06.883Z,23.70
2019-06-25T02:01:34.851Z,23.70
2019-06-25T02:04:02.775Z,23.60
2019-06-25T02:06:30.698Z,23.60
2019-06-25T02:08:58.605Z,23.70
2019-06-25T02:11:26.477Z,23.60
2019-06-25T02:13:54.435Z,23.60
2019-06-25T02:16:22.324Z,23.60
2019-06-25T02:18:50.263Z,23.60
2019-06-25T02:21:18.213Z,23.60
2019-06-25T02:23:46.113Z,23.50
2019-06-25T02:26:14.122Z,23.50
2019-06-25T02:28:41.964Z,23.50
2019-06-25T02:31:09.965Z,23.50
2019-06-25T02:33:37.864Z,23.50
2019-06-25T02:36:05.846Z,23.40
2019-06-25T02:38:33.922Z,23.50
2019-06-25T02:41:01.924Z,23.40
2019-06-25T02:43:29.904Z,23.40
2019-06-25T02:45:57.907Z,23.40
2019-06-25T02:48:25.816Z,23.40
2019-06-25T02:50:53.873Z,23.40
2019-06-25T02:53:21.755Z,23.40
2019-06-25T02:55:49.744Z,23.30
2019-06-25T02:58:17.658Z,23.40
2019-06-25T03:00:45.605Z,23.40
2019-06-25T03:03:13.558Z,23.40
2019-06-25T03:05:41.499Z,23.30
2019-06-25T03:08:09.401Z,23.30
2019-06-25T03:10:37.312Z,23.20
2019-06-25T03:13:05.233Z,23.20
2019-06-25T03:15:33.160Z,23.20
2019-06-25T03:18:01.123Z,23.20
2019-06-25T03:20:29.128Z,23.20
2019-06-25T03:22:57.012Z,23.20
2019-06-25T03:25:24.899Z,23.20
2019-06-25T03:27:52.840Z,23.20
2019-06-25T03:30:20.860Z,23.20
2019-06-25T03:32:48.864Z,23.20
2019-06-25T03:35:18.369Z,23.10
2019-06-25T03:37:46.404Z,23.00
2019-06-25T03:40:14.391Z,23.00
2019-06-25T03:42:42.252Z,23.00
2019-06-25T03:45:10.223Z,23.10
2019-06-25T03:47:38.152Z,23.10
2019-06-25T03:50:06.194Z,23.10
2019-06-25T03:52:34.108Z,23.00
2019-06-25T03:55:02.031Z,23.00
2019-06-25T03:57:30.047Z,23.10
2019-06-25T03:59:57.898Z,23.10
2019-06-25T04:02:25.775Z,23.00
2019-06-25T04:04:53.674Z,23.00
2019-06-25T04:07:21.642Z,23.00
2019-06-25T04:09:49.505Z,23.00
2019-06-25T04:12:17.443Z,23.00
2019-06-25T04:14:45.347Z,23.00
2019-06-25T04:17:13.211Z,23.00
2019-06-25T04:19:41.122Z,23.00
2019-06-25T04:22:09.043Z,23.00
2019-06-25T04:24:37.014Z,23.10
2019-06-25T04:27:04.979Z,23.00
2019-06-25T04:29:32.868Z,23.00
2019-06-25T04:32:01.281Z,23.00
2019-06-25T04:34:29.503Z,23.00
2019-06-25T04:36:57.505Z,23.00
2019-06-25T04:39:25.444Z,23.10
2019-06-25T04:41:53.369Z,23.00
2019-06-25T04:44:21.338Z,23.00
2019-06-25T04:46:49.261Z,23.00
2019-06-25T04:49:17.388Z,23.00
2019-06-25T04:51:45.524Z,23.00
2019-06-25T04:54:13.455Z,23.00
2019-06-25T04:56:41.410Z,23.10
2019-06-25T04:59:09.380Z,23.20
2019-06-25T05:01:37.384Z,23.20
2019-06-25T05:04:05.538Z,23.20
2019-06-25T05:06:33.487Z,23.20
2019-06-25T05:09:01.549Z,23.20
2019-06-25T05:11:29.476Z,23.40
2019-06-25T05:13:57.855Z,23.70
2019-06-25T05:16:25.835Z,24.10
2019-06-25T05:18:53.773Z,24.30
2019-06-25T05:21:21.890Z,24.50
2019-06-25T05:23:49.956Z,24.40
2019-06-25T05:26:17.884Z,24.40
2019-06-25T05:28:46.197Z,24.30
2019-06-25T05:31:14.228Z,24.30
2019-06-25T05:33:42.272Z,24.10
2019-06-25T05:36:28.050Z,24.00
2019-06-25T05:38:55.989Z,24.00
2019-06-25T05:41:23.901Z,23.90
2019-06-25T05:43:51.780Z,23.90
2019-06-25T05:46:19.707Z,24.00
2019-06-25T05:48:47.559Z,23.90
2019-06-25T05:51:15.481Z,23.90
2019-06-25T05:53:43.439Z,23.90
2019-06-25T05:56:11.416Z,24.00
2019-06-25T05:58:39.410Z,24.00
2019-06-25T06:01:07.395Z,24.00
2019-06-25T06:03:35.329Z,24.00
2019-06-25T06:06:03.284Z,24.00
2019-06-25T06:08:31.228Z,24.10
2019-06-25T06:10:59.095Z,24.10
2019-06-25T06:13:27.197Z,24.10
2019-06-25T06:15:58.962Z,24.20
2019-06-25T06:18:34.686Z,24.30
2019-06-25T06:21:02.594Z,24.40
2019-06-25T06:23:30.578Z,24.40
2019-06-25T06:25:58.687Z,24.40
2019-06-25T06:28:26.669Z,24.50
2019-06-25T06:30:54.736Z,24.50
2019-06-25T06:33:35.658Z,24.60
2019-06-25T06:35:52.675Z,24.50
2019-06-25T06:38:20.876Z,24.70
2019-06-25T06:40:48.915Z,24.70
2019-06-25T06:43:16.901Z,24.80
2019-06-25T06:45:44.800Z,24.80
2019-06-25T06:48:12.804Z,24.90
2019-06-25T06:50:40.786Z,25.00
2019-06-25T06:53:08.847Z,25.00
2019-06-25T06:55:37.096Z,25.10
2019-06-25T06:58:05.231Z,25.20
2019-06-25T07:00:33.791Z,25.40
2019-06-25T07:03:02.021Z,25.50
2019-06-25T07:05:30.300Z,25.60
2019-06-25T07:07:59.219Z,25.70
2019-06-25T07:10:27.150Z,25.80
2019-06-25T07:12:55.132Z,25.80
2019-06-25T07:15:23.332Z,25.90
2019-06-25T07:17:51.400Z,26.00
2019-06-25T07:20:32.456Z,26.10
2019-06-25T07:23:08.358Z,26.30
2019-06-25T07:25:36.312Z,26.30
2019-06-25T07:28:05.989Z,26.40
2019-06-25T07:30:34.206Z,26.40
2019-06-25T07:33:02.273Z,26.40
2019-06-25T07:35:30.304Z,26.60
2019-06-25T07:37:58.436Z,26.70
2019-06-25T07:40:26.415Z,26.80
2019-06-25T07:42:54.399Z,26.80
2019-06-25T07:45:22.666Z,26.90
2019-06-25T07:47:50.590Z,27.00
2019-06-25T07:50:18.883Z,27.10
2019-06-25T07:52:47.583Z,27.20
2019-06-25T07:55:15.537Z,27.30
2019-06-25T07:57:43.519Z,27.30
2019-06-25T08:00:11.706Z,27.30
2019-06-25T08:02:39.714Z,27.40
2019-06-25T08:05:07.728Z,27.40
2019-06-25T08:07:35.739Z,27.50
2019-06-25T08:10:04.002Z,27.50
2019-06-25T08:12:32.351Z,27.60
2019-06-25T08:15:00.383Z,27.70
2019-06-25T08:17:28.348Z,27.70
2019-06-25T08:19:56.328Z,27.80
2019-06-25T08:22:27.986Z,27.80
2019-06-25T08:24:53.932Z,27.90
2019-06-25T08:27:21.893Z,27.90
2019-06-25T08:29:52.232Z,28.00
2019-06-25T08:32:20.198Z,28.00
2019-06-25T08:34:48.281Z,28.10
2019-06-25T08:37:16.214Z,28.20
2019-06-25T08:39:44.308Z,28.30
2019-06-25T08:42:12.240Z,28.30
2019-06-25T08:44:40.319Z,28.30
2019-06-25T08:47:08.367Z,28.40
2019-06-25T08:49:36.335Z,28.50
2019-06-25T08:52:04.367Z,28.60
2019-06-25T08:54:32.366Z,28.70
2019-06-25T08:57:00.363Z,28.70
2019-06-25T08:59:28.387Z,28.80
2019-06-25T09:01:56.510Z,28.90
2019-06-25T09:04:24.501Z,28.90
2019-06-25T09:06:52.540Z,29.00
2019-06-25T09:09:20.655Z,29.00
2019-06-25T09:11:48.756Z,29.10
2019-06-25T09:14:16.647Z,29.20
2019-06-25T09:16:44.600Z,29.20
2019-06-25T09:19:12.577Z,29.00
2019-06-25T09:21:40.469Z,29.10
2019-06-25T09:24:08.359Z,29.10
2019-06-25T09:26:36.208Z,29.20
2019-06-25T09:29:04.423Z,29.20
2019-06-25T09:31:32.610Z,29.30
2019-06-25T09:34:00.623Z,29.40
2019-06-25T09:36:28.550Z,29.50
2019-06-25T09:38:59.230Z,29.50
2019-06-25T09:41:28.185Z,29.70
2019-06-25T09:44:00.142Z,29.70
2019-06-25T09:46:26.679Z,29.80
2019-06-25T09:48:54.857Z,30.00
2019-06-25T09:51:23.319Z,30.20
2019-06-25T09:53:51.427Z,30.40
2019-06-25T09:56:21.937Z,30.70
2019-06-25T09:58:49.973Z,30.90
2019-06-25T10:01:26.593Z,31.00
2019-06-25T10:03:47.668Z,31.20
2019-06-25T10:06:15.630Z,31.30
2019-06-25T10:08:43.804Z,31.40
2019-06-25T10:11:11.828Z,31.60
2019-06-25T10:13:39.697Z,31.70
2019-06-25T10:16:07.794Z,31.80
2019-06-25T10:18:44.462Z,31.90
2019-06-25T10:21:05.595Z,32.10
2019-06-25T10:23:33.645Z,32.30
2019-06-25T10:26:01.679Z,32.40
2019-06-25T10:28:37.788Z,32.60
2019-06-25T10:30:59.367Z,32.80
2019-06-25T10:33:27.558Z,33.00
2019-06-25T10:35:55.798Z,33.30
2019-06-25T10:38:23.817Z,33.60
2019-06-25T10:40:51.932Z,33.70
2019-06-25T10:43:20.062Z,34.10
2019-06-25T10:45:48.220Z,35.10
2019-06-25T10:48:16.273Z,36.10
2019-06-25T10:50:44.210Z,37.30
2019-06-25T10:53:12.293Z,37.80
2019-06-25T10:55:40.255Z,38.50
2019-06-25T10:58:08.493Z,39.50
2019-06-25T11:00:55.301Z,39.70
2019-06-25T11:03:23.352Z,39.70
2019-06-25T11:06:04.366Z,39.90
2019-06-25T11:08:20.965Z,39.70
2019-06-25T11:10:49.025Z,40.40
2019-06-25T11:13:16.927Z,40.90
2019-06-25T11:15:44.922Z,41.70
2019-06-25T11:18:12.810Z,41.70
2019-06-25T11:20:40.718Z,41.20
2019-06-25T11:23:08.860Z,41.50
2019-06-25T11:25:36.973Z,41.40
2019-06-25T11:28:04.888Z,41.80
2019-06-25T11:30:32.963Z,42.20
2019-06-25T11:33:00.949Z,42.90
2019-06-25T11:35:29.021Z,42.90
2019-06-25T11:37:56.996Z,43.10
2019-06-25T11:40:29.331Z,42.80
2019-06-25T11:42:57.421Z,43.00
2019-06-25T11:45:25.391Z,43.10
2019-06-25T11:47:53.338Z,42.60
2019-06-25T11:50:21.639Z,42.60
2019-06-25T11:52:49.792Z,42.60
2019-06-25T11:55:17.866Z,42.60
2019-06-25T11:57:45.857Z,42.20
2019-06-25T12:00:14.348Z,42.10
2019-06-25T12:02:42.409Z,41.80
2019-06-25T12:05:11.509Z,41.30
2019-06-25T12:07:39.672Z,41.40
2019-06-25T12:10:07.874Z,41.50
2019-06-25T12:12:35.773Z,41.20
2019-06-25T12:15:04.444Z,40.70
2019-06-25T12:17:32.451Z,39.90
2019-06-25T12:20:00.462Z,39.40
2019-06-25T12:22:28.488Z,39.50
2019-06-25T12:24:56.392Z,39.30
2019-06-25T12:27:24.491Z,39.10
2019-06-25T12:29:52.465Z,38.40
2019-06-25T12:32:20.601Z,38.10
2019-06-25T12:34:48.669Z,37.80
2019-06-25T12:37:16.670Z,37.70
2019-06-25T12:39:45.491Z,37.60
2019-06-25T12:42:13.426Z,37.10
2019-06-25T12:44:41.450Z,36.70
2019-06-25T12:47:09.433Z,36.50
2019-06-25T12:49:37.394Z,36.30
2019-06-25T12:52:05.715Z,36.20
2019-06-25T12:54:33.874Z,36.30
2019-06-25T12:57:04.014Z,36.40
2019-06-25T12:59:31.952Z,36.50
2019-06-25T13:02:01.267Z,36.50
2019-06-25T13:04:29.481Z,36.60
2019-06-25T13:06:57.402Z,36.60
2019-06-25T13:09:25.438Z,36.50
2019-06-25T13:11:53.421Z,36.40
2019-06-25T13:14:21.429Z,36.40
2019-06-25T13:16:49.381Z,36.30
2019-06-25T13:19:17.323Z,36.30
2019-06-25T13:21:45.208Z,36.30
2019-06-25T13:24:13.142Z,36.30
2019-06-25T13:26:41.156Z,36.30
2019-06-25T13:29:09.112Z,36.40
2019-06-25T13:31:37.053Z,36.20
2019-06-25T13:34:05.667Z,36.10
2019-06-25T13:36:33.840Z,36.20
2019-06-25T13:39:02.138Z,36.30
2019-06-25T13:41:30.171Z,36.40
2019-06-25T13:43:58.079Z,36.40
2019-06-25T13:46:26.065Z,36.20
2019-06-25T13:48:54.048Z,35.80
2019-06-25T13:51:22.087Z,35.70
2019-06-25T13:53:50.435Z,35.80
2019-06-25T13:56:18.355Z,35.90
2019-06-25T13:58:46.368Z,36.00
2019-06-25T14:01:14.493Z,35.90
2019-06-25T14:03:42.442Z,35.80
2019-06-25T14:06:10.440Z,35.90
2019-06-25T14:08:38.460Z,36.20
2019-06-25T14:11:06.457Z,36.30
2019-06-25T14:13:34.443Z,36.40
2019-06-25T14:16:02.379Z,36.40
2019-06-25T14:18:30.261Z,36.50
2019-06-25T14:20:58.284Z,36.50
2019-06-25T14:23:26.327Z,36.50
2019-06-25T14:26:09.258Z,36.60
2019-06-25T14:28:24.047Z,36.50
2019-06-25T14:30:51.956Z,36.40
2019-06-25T14:33:19.847Z,36.20
2019-06-25T14:35:49.149Z,36.30
2019-06-25T14:38:17.113Z,36.30
2019-06-25T14:40:45.075Z,36.20
2019-06-25T14:43:13.020Z,36.10
2019-06-25T14:45:41.248Z,36.00
2019-06-25T14:48:09.324Z,35.90
2019-06-25T14:50:37.400Z,35.90
2019-06-25T14:53:05.532Z,35.90
2019-06-25T14:55:33.471Z,35.90
2019-06-25T14:58:01.637Z,35.80
2019-06-25T15:00:29.635Z,35.60
2019-06-25T15:02:59.126Z,35.50
2019-06-25T15:05:27.479Z,35.50
2019-06-25T15:07:55.479Z,35.30
2019-06-25T15:10:23.736Z,35.40
2019-06-25T15:12:51.704Z,35.40
2019-06-25T15:15:32.290Z,35.50
2019-06-25T15:17:49.659Z,35.50
2019-06-25T15:20:17.796Z,35.50
2019-06-25T15:22:45.923Z,35.50
2019-06-25T15:25:13.868Z,35.40
2019-06-25T15:27:41.952Z,35.40
2019-06-25T15:30:10.986Z,35.50
2019-06-25T15:32:39.143Z,35.50
2019-06-25T15:35:07.318Z,35.50
2019-06-25T15:37:35.430Z,35.60
2019-06-25T15:40:03.686Z,35.70
2019-06-25T15:42:31.767Z,35.70
2019-06-25T15:44:59.844Z,35.70
2019-06-25T15:47:27.833Z,35.50
2019-06-25T15:49:56.129Z,35.50
2019-06-25T15:52:27.641Z,35.50
2019-06-25T15:54:56.317Z,35.60
2019-06-25T15:57:24.475Z,35.50
2019-06-25T15:59:52.558Z,35.50
2019-06-25T16:02:20.557Z,35.40
2019-06-25T16:04:49.426Z,35.50
2019-06-25T16:07:17.455Z,35.50
2019-06-25T16:09:45.405Z,35.40
2019-06-25T16:12:13.419Z,35.40
2019-06-25T16:14:41.516Z,35.30
2019-06-25T16:17:09.963Z,35.30
2019-06-25T16:19:38.272Z,35.40
2019-06-25T16:22:06.350Z,35.40
2019-06-25T16:24:34.543Z,35.40
2019-06-25T16:27:03.039Z,35.30
2019-06-25T16:29:31.186Z,35.30
2019-06-25T16:31:59.392Z,35.20
2019-06-25T16:34:27.508Z,35.10
2019-06-25T16:36:55.547Z,35.10
2019-06-25T16:39:23.777Z,35.20
2019-06-25T16:41:54.855Z,35.20
2019-06-25T16:44:23.166Z,35.10
2019-06-25T16:46:53.312Z,34.90
2019-06-25T16:49:21.291Z,34.80
2019-06-25T16:51:49.243Z,34.80
2019-06-25T16:54:17.180Z,34.90
2019-06-25T16:56:45.211Z,34.90
2019-06-25T16:59:13.206Z,34.80
2019-06-25T17:01:41.347Z,34.90
2019-06-25T17:04:09.495Z,34.80
2019-06-25T17:06:37.585Z,34.90
2019-06-25T17:09:07.393Z,34.90
2019-06-25T17:11:35.743Z,34.80
2019-06-25T17:14:04.004Z,34.80
2019-06-25T17:16:32.259Z,34.70
2019-06-25T17:19:00.276Z,34.70
2019-06-25T17:21:28.184Z,34.70
2019-06-25T17:24:02.603Z,34.60
2019-06-25T17:26:25.948Z,34.60
2019-06-25T17:28:53.936Z,34.50
2019-06-25T17:31:21.901Z,34.40
2019-06-25T17:33:49.972Z,34.40
2019-06-25T17:36:18.073Z,34.30
2019-06-25T17:38:46.094Z,34.30
2019-06-25T17:41:14.069Z,34.30
2019-06-25T17:43:47.100Z,34.20
2019-06-25T17:46:11.796Z,34.10
2019-06-25T17:48:39.710Z,34.00
2019-06-25T17:51:07.627Z,34.00
2019-06-25T17:53:36.780Z,33.80
2019-06-25T17:56:05.154Z,33.70
2019-06-25T17:58:33.058Z,33.50
2019-06-25T18:01:01.140Z,33.50
2019-06-25T18:03:29.230Z,33.50
2019-06-25T18:05:57.180Z,33.40
2019-06-25T18:08:25.350Z,33.30
2019-06-25T18:10:53.390Z,33.20
2019-06-25T18:13:21.284Z,33.00
2019-06-25T18:15:49.182Z,32.80
2019-06-25T18:18:17.548Z,32.70
2019-06-25T18:20:45.532Z,32.60
2019-06-25T18:23:13.519Z,32.50
2019-06-25T18:25:41.431Z,32.40
2019-06-25T18:28:09.418Z,32.30
2019-06-25T18:30:37.424Z,32.10
2019-06-25T18:33:05.388Z,32.00
2019-06-25T18:35:33.300Z,32.00
2019-06-25T18:38:01.351Z,31.80
2019-06-25T18:40:29.429Z,31.70
2019-06-25T18:42:57.389Z,31.60
2019-06-25T18:45:25.406Z,31.50
2019-06-25T18:47:53.446Z,31.40
2019-06-25T18:50:21.428Z,31.40
2019-06-25T18:52:49.396Z,31.30
2019-06-25T18:55:17.319Z,31.20
2019-06-25T18:57:45.293Z,31.20
2019-06-25T19:00:13.586Z,31.10
2019-06-25T19:02:41.832Z,31.00
2019-06-25T19:05:09.846Z,31.00
2019-06-25T19:07:37.841Z,30.90
2019-06-25T19:10:06.330Z,30.80
2019-06-25T19:12:34.440Z,30.70
2019-06-25T19:15:02.524Z,30.60
2019-06-25T19:17:30.505Z,30.50
2019-06-25T19:19:58.417Z,30.40
2019-06-25T19:22:27.966Z,30.40
2019-06-25T19:24:56.681Z,30.40
2019-06-25T19:27:24.724Z,30.30
2019-06-25T19:29:52.730Z,30.20
2019-06-25T19:32:20.636Z,30.10
2019-06-25T19:34:48.608Z,30.00
2019-06-25T19:37:16.578Z,30.00
2019-06-25T19:39:44.530Z,29.90
2019-06-25T19:42:12.612Z,29.90
2019-06-25T19:44:40.492Z,29.80
2019-06-25T19:47:08.429Z,29.70
2019-06-25T19:49:55.876Z,29.70
2019-06-25T19:52:23.848Z,29.60
2019-06-25T19:54:51.744Z,29.60
2019-06-25T19:57:19.808Z,29.60
2019-06-25T19:59:47.743Z,29.50
2019-06-25T20:02:15.691Z,29.40
2019-06-25T20:04:43.663Z,29.40
2019-06-25T20:07:11.773Z,29.30
2019-06-25T20:09:40.311Z,29.30
2019-06-25T20:12:08.610Z,29.20
2019-06-25T20:14:36.631Z,29.20
2019-06-25T20:17:04.743Z,29.10
2019-06-25T20:19:32.783Z,29.00
2019-06-25T20:22:01.190Z,29.00
2019-06-25T20:24:32.337Z,28.90
2019-06-25T20:27:00.717Z,28.80
2019-06-25T20:29:28.714Z,28.80
2019-06-25T20:31:56.943Z,28.70
2019-06-25T20:34:24.987Z,28.70
2019-06-25T20:36:53.136Z,28.70
2019-06-25T20:39:21.163Z,28.60
2019-06-25T20:41:50.340Z,28.50
2019-06-25T20:44:18.976Z,28.50
2019-06-25T20:46:46.936Z,28.50
2019-06-25T20:49:14.891Z,28.40
2019-06-25T20:51:42.903Z,28.40
2019-06-25T20:54:11.077Z,28.40
2019-06-25T20:56:39.129Z,28.40
2019-06-25T20:59:07.097Z,28.30
2019-06-25T21:01:35.133Z,28.30
2019-06-25T21:04:03.045Z,28.20
2019-06-25T21:06:31.183Z,28.20
2019-06-25T21:08:59.534Z,28.20
2019-06-25T21:11:29.855Z,28.10
2019-06-25T21:13:57.419Z,28.00
2019-06-25T21:16:25.467Z,28.00
2019-06-25T21:18:53.383Z,28.00
2019-06-25T21:21:21.427Z,27.90
2019-06-25T21:23:55.544Z,27.90
2019-06-25T21:26:19.147Z,27.90
2019-06-25T21:28:47.099Z,27.80
2019-06-25T21:31:15.106Z,27.80
2019-06-25T21:33:42.997Z,27.80
2019-06-25T21:36:10.908Z,27.80
2019-06-25T21:38:38.867Z,27.80
2019-06-25T21:41:06.851Z,27.80
2019-06-25T21:43:34.884Z,27.70
2019-06-25T21:46:02.829Z,27.70
2019-06-25T21:48:31.008Z,27.70
2019-06-25T21:50:58.977Z,27.60
2019-06-25T21:53:26.890Z,27.60
2019-06-25T21:55:54.784Z,27.60
2019-06-25T21:58:22.784Z,27.50
2019-06-25T22:00:51.711Z,27.50
2019-06-25T22:03:19.899Z,27.50
2019-06-25T22:05:47.983Z,27.50
2019-06-25T22:08:15.883Z,27.40
2019-06-25T22:10:43.829Z,27.50
2019-06-25T22:13:11.730Z,27.40
2019-06-25T22:15:40.556Z,27.40
2019-06-25T22:18:08.634Z,27.40
2019-06-25T22:20:36.552Z,27.40
2019-06-25T22:23:06.196Z,27.40
2019-06-25T22:25:36.466Z,27.40
2019-06-25T22:28:07.574Z,27.50
2019-06-25T22:30:35.722Z,27.50
2019-06-25T22:33:03.718Z,27.50
2019-06-25T22:35:31.600Z,27.40
2019-06-25T22:37:59.511Z,27.30
2019-06-25T22:40:27.463Z,27.20
2019-06-25T22:42:55.409Z,27.20
2019-06-25T22:45:23.425Z,27.20
2019-06-25T22:47:51.306Z,27.20
2019-06-25T22:50:19.290Z,27.10
2019-06-25T22:52:47.279Z,27.10
2019-06-25T22:55:15.281Z,27.10
2019-06-25T22:57:43.247Z,27.00
2019-06-25T23:00:11.573Z,27.00
2019-06-25T23:02:39.749Z,27.10
2019-06-25T23:05:15.416Z,27.10
2019-06-25T23:07:43.358Z,27.00
2019-06-25T23:10:11.930Z,27.00
2019-06-25T23:12:53.035Z,27.00
2019-06-25T23:15:09.807Z,27.00
2019-06-25T23:17:37.851Z,26.90
2019-06-25T23:20:05.854Z,26.90
2019-06-25T23:22:33.838Z,26.80
2019-06-25T23:25:01.777Z,26.90
2019-06-25T23:27:29.751Z,26.90
2019-06-25T23:29:57.646Z,26.80
2019-06-25T23:32:25.648Z,26.80
2019-06-25T23:34:53.586Z,26.80
2019-06-25T23:37:21.453Z,26.80
2019-06-25T23:39:49.423Z,26.80
2019-06-25T23:42:17.408Z,26.80
2019-06-25T23:44:45.311Z,26.80
2019-06-25T23:47:13.281Z,26.80
2019-06-25T23:49:41.279Z,26.80
2019-06-25T23:52:09.184Z,26.70
2019-06-25T23:54:37.198Z,26.70
2019-06-25T23:57:05.063Z,26.70
2019-06-25T23:59:32.988Z,26.60
